Time;durP1;ratioP1;P1;durP2;ratioP2;P2;SDS_P1;SDS_P2;PMS_P1;PMS_P2;Temp;Humidity;BMP_temperature;BMP_pressure;BME280_temperature;BME280_humidity;BME280_pressure;Samples;Min_cycle;Max_cycle;Signal;HPM_P1;HPM_P2
2021/09/26 00:01:48;;;;;;;30.97;22.60;;;;;;;15.85;82.27;100901.78;1705387;84;21026;-81
2021/09/26 00:04:13;;;;;;;27.65;20.43;;;;;;;15.85;82.31;100909.02;1726390;83;21675;-82
2021/09/26 00:06:39;;;;;;;22.60;18.40;;;;;;;15.83;82.33;100903.01;1721232;81;21022;-82
2021/09/26 00:09:05;;;;;;;28.12;20.88;;;;;;;15.84;82.36;100904.66;1735180;81;20935;-82
2021/09/26 00:11:32;;;;;;;25.62;20.52;;;;;;;15.84;82.37;100905.48;1724010;81;21058;-82
2021/09/26 00:13:58;;;;;;;25.68;19.60;;;;;;;15.84;82.39;100904.66;1710911;82;20911;-82
2021/09/26 00:16:24;;;;;;;23.27;18.85;;;;;;;15.83;82.43;100908.39;1708756;84;21179;-82
2021/09/26 00:18:50;;;;;;;19.75;17.60;;;;;;;15.83;82.47;100908.39;1708652;84;21546;-82
2021/09/26 00:21:16;;;;;;;19.77;16.95;;;;;;;15.82;82.45;100910.75;1709009;84;21704;-82
2021/09/26 00:23:42;;;;;;;19.25;17.17;;;;;;;15.82;82.46;100910.75;1712228;82;21413;-82
2021/09/26 00:26:08;;;;;;;19.30;16.05;;;;;;;15.81;82.49;100907.22;1738527;82;20896;-82
2021/09/26 00:28:37;;;;;;;18.40;15.75;;;;;;;15.82;82.50;100908.06;1738049;81;21142;-82
2021/09/26 00:31:04;;;;;;;22.77;15.85;;;;;;;15.82;82.52;100914.78;1738304;81;21055;-82
2021/09/26 00:33:30;;;;;;;20.15;16.15;;;;;;;15.81;82.51;100910.42;1737656;82;21046;-82
2021/09/26 00:35:56;;;;;;;21.80;17.67;;;;;;;15.79;82.53;100912.48;1738134;82;21500;-82
2021/09/26 00:38:22;;;;;;;22.17;16.95;;;;;;;15.77;82.63;100910.47;1738555;82;21504;-82
2021/09/26 00:40:49;;;;;;;19.77;16.55;;;;;;;15.74;82.56;100906.83;1722613;82;21817;-82
2021/09/26 00:43:16;;;;;;;20.02;15.68;;;;;;;15.67;82.58;100900.55;1708957;84;21051;-82
2021/09/26 00:45:42;;;;;;;20.43;16.95;;;;;;;15.62;82.58;100904.33;1690549;84;21046;-82
2021/09/26 00:48:08;;;;;;;22.17;17.25;;;;;;;15.60;82.62;100910.39;1708832;84;20987;-82
2021/09/26 00:50:35;;;;;;;20.77;16.10;;;;;;;15.58;82.64;100912.45;1709095;83;21118;-82
2021/09/26 00:53:01;;;;;;;19.12;15.98;;;;;;;15.58;82.67;100907.08;1708743;83;21129;-82
2021/09/26 00:55:28;;;;;;;20.00;16.23;;;;;;;15.58;82.68;100909.77;1703019;83;21118;-82
2021/09/26 00:57:54;;;;;;;19.23;15.00;;;;;;;15.56;82.68;100911.80;1749118;81;21537;-82
2021/09/26 01:00:20;;;;;;;23.38;17.65;;;;;;;15.54;82.68;100911.16;1749040;82;21510;-82
2021/09/26 01:02:46;;;;;;;21.97;19.67;;;;;;;15.52;82.71;100910.53;1748587;81;20971;-82
2021/09/26 01:05:13;;;;;;;23.83;19.45;;;;;;;15.51;82.75;100912.89;1749206;82;21161;-82
2021/09/26 01:08:25;;;;;;;23.30;18.62;;;;;;;15.49;82.76;100913.91;1755676;80;20970;-83
2021/09/26 01:11:11;;;;;;;22.70;18.50;;;;;;;15.48;82.78;100912.23;1778888;80;20974;-82
2021/09/26 01:13:48;;;;;;;19.60;17.50;;;;;;;15.47;82.80;100909.20;1760721;80;20999;-82
2021/09/26 01:16:56;;;;;;;19.60;16.95;;;;;;;15.47;82.84;100911.90;1767482;80;21042;-82
2021/09/26 01:20:05;;;;;;;50.10;39.63;;;;;;;15.43;82.77;100915.98;1717841;82;21081;-81
2021/09/26 01:23:07;;;;;;;24.35;19.92;;;;;;;15.40;83.00;100919.05;1749493;82;21378;-81
2021/09/26 01:26:00;;;;;;;23.00;18.37;;;;;;;15.38;82.92;100914.35;1749283;82;21451;-81
2021/09/26 01:28:52;;;;;;;19.27;16.90;;;;;;;15.36;82.92;100909.69;1748015;82;21038;-81
2021/09/26 01:31:28;;;;;;;21.90;17.40;;;;;;;15.32;82.94;100912.43;1747312;81;20975;-81
2021/09/26 01:33:59;;;;;;;22.13;17.35;;;;;;;15.19;83.07;100893.46;1748635;82;22141;-81
2021/09/26 01:36:44;;;;;;;19.35;17.05;;;;;;;15.16;82.98;100892.50;1747754;82;20983;-82
2021/09/26 01:39:15;;;;;;;22.67;17.70;;;;;;;15.27;83.02;100915.37;1721684;82;20995;-81
2021/09/26 01:42:08;;;;;;;19.87;16.35;;;;;;;15.23;83.05;100920.28;1780170;80;20998;-81
2021/09/26 01:44:41;;;;;;;21.25;17.10;;;;;;;15.22;83.06;100919.11;1779719;80;21062;-81
2021/09/26 01:47:10;;;;;;;20.00;16.75;;;;;;;15.08;83.05;100902.50;1745443;80;21033;-82
2021/09/26 01:49:40;;;;;;;24.63;16.95;;;;;;;15.13;83.12;100921.05;1780045;80;21019;-81
2021/09/26 01:52:17;;;;;;;22.35;17.52;;;;;;;15.14;83.16;100921.39;1780491;80;21058;-82
2021/09/26 01:54:43;;;;;;;21.15;16.93;;;;;;;15.12;83.16;100919.41;1757691;80;21050;-79
2021/09/26 01:57:09;;;;;;;21.30;16.02;;;;;;;14.97;83.22;100898.43;1757684;81;21058;-82
2021/09/26 01:59:35;;;;;;;23.10;16.27;;;;;;;15.00;83.22;100915.01;1781617;80;21122;-82
2021/09/26 02:02:02;;;;;;;22.32;17.15;;;;;;;14.99;83.27;100912.49;1788611;79;20959;-82
2021/09/26 02:04:28;;;;;;;20.30;16.07;;;;;;;14.96;83.35;100926.30;1789095;79;20995;-82
2021/09/26 02:06:54;;;;;;;24.07;18.27;;;;;;;14.96;83.35;100926.30;1788243;80;21010;-82
2021/09/26 02:09:20;;;;;;;21.20;17.80;;;;;;;14.95;83.28;100926.00;1788980;79;21022;-82
2021/09/26 02:11:46;;;;;;;28.92;24.87;;;;;;;14.94;83.35;100926.50;1788544;80;21015;-82
2021/09/26 02:14:12;;;;;;;26.45;20.27;;;;;;;14.92;83.37;100929.03;1757591;81;21033;-82
2021/09/26 02:16:39;;;;;;;24.55;18.27;;;;;;;14.88;83.52;100929.09;1757914;80;21041;-82
2021/09/26 02:19:05;;;;;;;26.75;20.05;;;;;;;14.88;83.52;100929.09;1757969;81;21503;-82
2021/09/26 02:21:32;;;;;;;24.77;17.98;;;;;;;14.74;83.49;100908.45;1758060;81;21474;-82
2021/09/26 02:23:58;;;;;;;33.67;20.10;;;;;;;14.76;83.48;100931.91;1757609;81;21973;-82
2021/09/26 02:26:25;;;;;;;27.40;19.87;;;;;;;14.76;83.48;100931.91;1757559;81;20994;-82
2021/09/26 02:28:51;;;;;;;27.02;20.12;;;;;;;14.63;83.73;100939.77;1768280;80;21052;-82
2021/09/26 02:31:17;;;;;;;32.28;23.07;;;;;;;14.63;83.73;100939.77;1788773;80;20983;-82
2021/09/26 02:33:48;;;;;;;33.02;22.42;;;;;;;14.59;83.63;100942.48;1789070;80;20970;-82
2021/09/26 02:36:12;;;;;;;29.18;20.72;;;;;;;14.55;83.65;100942.52;1788208;80;21451;-82
2021/09/26 02:38:38;;;;;;;31.87;20.40;;;;;;;14.47;83.67;100934.87;1788911;80;20964;-82
2021/09/26 02:41:19;;;;;;;31.40;20.62;;;;;;;14.39;83.70;100934.12;1761486;79;20957;-82
2021/09/26 02:43:56;;;;;;;26.95;20.77;;;;;;;14.34;83.78;100936.00;1757657;81;21049;-83
2021/09/26 02:46:25;;;;;;;23.73;18.12;;;;;;;14.32;83.77;100939.33;1758051;80;21014;-82
2021/09/26 02:48:51;;;;;;;24.75;17.67;;;;;;;14.30;83.78;100942.70;1757590;81;21076;-83
2021/09/26 02:51:17;;;;;;;28.52;19.52;;;;;;;14.30;83.83;100941.37;1757786;81;21002;-83
2021/09/26 02:53:43;;;;;;;34.75;22.20;;;;;;;14.29;83.83;100942.37;1786601;80;20982;-83
2021/09/26 02:56:09;;;;;;;30.57;21.05;;;;;;;14.26;83.85;100942.73;1760812;80;21526;-82
2021/09/26 02:58:38;;;;;;;26.82;18.77;;;;;;;14.22;83.87;100941.42;1791463;80;20983;-83
2021/09/26 03:01:04;;;;;;;30.20;19.92;;;;;;;14.15;83.86;100939.13;1791566;79;21974;-82
2021/09/26 03:03:30;;;;;;;29.15;20.57;;;;;;;14.14;83.94;100944.20;1790555;80;20974;-82
2021/09/26 03:05:56;;;;;;;28.52;19.27;;;;;;;14.13;83.98;100943.86;1791296;80;20986;-82
2021/09/26 03:08:23;;;;;;;25.80;17.80;;;;;;;14.14;84.03;100946.88;1791322;80;21022;-82
2021/09/26 03:10:56;;;;;;;26.87;19.62;;;;;;;14.12;84.05;100948.05;1791433;80;21034;-82
2021/09/26 03:13:22;;;;;;;29.40;20.90;;;;;;;14.08;84.08;100950.25;1791577;80;21905;-82
2021/09/26 03:15:48;;;;;;;33.73;23.18;;;;;;;14.06;84.11;100949.61;1791074;80;20975;-82
2021/09/26 03:18:14;;;;;;;29.85;23.25;;;;;;;14.05;84.12;100946.59;1791414;80;20965;-82
2021/09/26 03:20:40;;;;;;;31.85;24.23;;;;;;;14.08;84.14;100952.09;1791383;80;21025;-83
2021/09/26 03:23:06;;;;;;;34.67;24.45;;;;;;;14.10;84.18;100948.75;1791511;80;21033;-82
2021/09/26 03:25:32;;;;;;;32.85;23.42;;;;;;;14.11;84.19;100946.41;1767883;80;21050;-82
2021/09/26 03:27:58;;;;;;;31.30;22.87;;;;;;;14.14;84.24;100952.24;1760083;81;20990;-82
2021/09/26 03:30:24;;;;;;;32.67;23.42;;;;;;;14.13;84.24;100947.88;1760175;81;20990;-82
2021/09/26 03:32:51;;;;;;;26.10;21.82;;;;;;;14.15;84.25;100948.52;1769518;80;20998;-82
2021/09/26 03:35:17;;;;;;;26.10;21.68;;;;;;;14.12;84.29;100944.86;1791239;80;21041;-82
2021/09/26 03:37:43;;;;;;;25.10;19.87;;;;;;;14.12;84.31;100944.86;1791324;80;21168;-82
2021/09/26 03:40:10;;;;;;;26.17;21.12;;;;;;;14.13;84.35;100951.06;1791132;80;20991;-82
2021/09/26 03:42:37;;;;;;;26.65;21.97;;;;;;;14.12;84.36;100942.18;1776754;80;20993;-82
2021/09/26 03:45:03;;;;;;;29.05;21.93;;;;;;;14.13;84.39;100947.88;1760591;80;21029;-82
2021/09/26 03:47:29;;;;;;;27.15;20.52;;;;;;;14.14;84.43;100942.85;1791418;80;21503;-82
2021/09/26 03:49:55;;;;;;;30.00;22.05;;;;;;;14.12;84.42;100947.55;1791363;80;21923;-83
2021/09/26 03:52:21;;;;;;;25.32;20.77;;;;;;;14.11;84.46;100944.52;1791398;80;20978;-82
2021/09/26 03:54:50;;;;;;;26.85;19.57;;;;;;;14.11;84.47;100947.20;1790973;80;20973;-82
2021/09/26 03:57:15;;;;;;;27.27;20.60;;;;;;;14.11;84.49;100943.72;1782200;80;21046;-82
2021/09/26 03:59:41;;;;;;;24.25;19.50;;;;;;;14.10;84.54;100942.88;1779911;80;22069;-83
2021/09/26 04:02:08;;;;;;;27.37;21.65;;;;;;;14.12;84.57;100939.50;1779926;80;21020;-82
2021/09/26 04:04:35;;;;;;;24.95;20.15;;;;;;;14.13;84.60;100945.20;1779714;80;21459;-82
2021/09/26 04:07:01;;;;;;;23.20;19.55;;;;;;;14.11;84.62;100936.48;1764134;80;20999;-81
2021/09/26 04:09:27;;;;;;;28.57;20.60;;;;;;;14.08;84.62;100932.82;1751262;80;21467;-82
2021/09/26 04:11:53;;;;;;;26.57;19.90;;;;;;;14.10;84.67;100935.34;1749150;80;20891;-81
2021/09/26 04:14:19;;;;;;;26.40;20.23;;;;;;;14.10;84.67;100938.86;1748928;82;21119;-81
2021/09/26 04:16:49;;;;;;;26.17;20.40;;;;;;;14.10;84.69;100940.20;1749227;82;20975;-81
2021/09/26 04:19:14;;;;;;;23.35;19.05;;;;;;;14.11;84.74;100936.48;1748986;82;21018;-82
2021/09/26 04:21:40;;;;;;;21.30;18.92;;;;;;;14.13;84.76;100943.02;1749311;82;20987;-82
2021/09/26 04:24:06;;;;;;;24.85;19.87;;;;;;;14.15;84.80;100938.30;1756949;80;21357;-82
2021/09/26 04:26:32;;;;;;;20.82;18.45;;;;;;;14.15;84.82;100932.43;1779929;80;21004;-81
2021/09/26 04:28:58;;;;;;;23.42;19.73;;;;;;;14.16;84.84;100934.11;1779814;80;20999;-82
2021/09/26 04:31:24;;;;;;;24.52;19.92;;;;;;;14.15;84.85;100940.48;1759186;80;21486;-81
2021/09/26 04:33:50;;;;;;;23.32;18.85;;;;;;;14.16;84.87;100942.16;1753890;80;21030;-81
2021/09/26 04:36:16;;;;;;;22.77;19.15;;;;;;;14.17;84.91;100941.15;1780268;80;20978;-81
2021/09/26 04:38:42;;;;;;;25.82;20.55;;;;;;;14.16;84.90;100940.81;1780242;80;21636;-82
2021/09/26 04:41:08;;;;;;;25.37;20.27;;;;;;;14.14;84.92;100938.83;1779995;80;21034;-81
2021/09/26 04:43:34;;;;;;;23.00;19.12;;;;;;;14.14;84.96;100945.53;1780237;80;21027;-81
2021/09/26 04:46:00;;;;;;;21.00;18.40;;;;;;;14.17;84.98;100949.20;1780384;80;20946;-82
2021/09/26 04:48:26;;;;;;;24.27;18.82;;;;;;;14.19;85.04;100947.16;1780461;80;20971;-81
2021/09/26 04:50:52;;;;;;;23.02;18.35;;;;;;;14.25;85.06;100943.74;1780098;80;21007;-82
2021/09/26 04:53:18;;;;;;;22.98;18.00;;;;;;;14.34;85.05;100945.39;1774365;80;22193;-82
2021/09/26 04:55:44;;;;;;;22.27;18.42;;;;;;;14.44;85.06;100948.66;1749347;81;21704;-80
2021/09/26 04:58:10;;;;;;;23.57;18.45;;;;;;;14.55;85.08;100949.23;1757064;81;20960;-82
2021/09/26 05:00:37;;;;;;;21.73;18.77;;;;;;;14.61;85.08;100949.83;1757309;81;21420;-82
2021/09/26 05:03:04;;;;;;;21.52;18.25;;;;;;;14.67;85.10;100950.47;1761394;80;21166;-81
2021/09/26 05:05:30;;;;;;;20.97;18.73;;;;;;;14.71;85.12;100950.40;1767915;80;21003;-82
2021/09/26 05:07:56;;;;;;;22.93;19.73;;;;;;;14.77;85.14;100952.37;1783577;80;21463;-82
2021/09/26 05:10:22;;;;;;;25.20;19.10;;;;;;;14.82;85.17;100958.84;1782248;80;20994;-82
2021/09/26 05:12:49;;;;;;;21.95;17.77;;;;;;;14.86;85.21;100962.00;1775228;80;21637;-82
2021/09/26 05:15:15;;;;;;;19.95;18.00;;;;;;;14.91;85.23;100966.33;1788485;80;21081;-82
2021/09/26 05:17:41;;;;;;;24.77;18.23;;;;;;;14.95;85.22;100967.62;1761458;80;21014;-82
2021/09/26 05:20:08;;;;;;;19.85;17.73;;;;;;;14.99;85.28;100974.27;1776401;80;21049;-82
2021/09/26 05:22:34;;;;;;;20.85;17.87;;;;;;;15.02;85.28;100975.28;1784874;80;21507;-82
2021/09/26 05:25:00;;;;;;;20.55;17.15;;;;;;;15.07;85.29;100976.88;1783058;80;20974;-82
2021/09/26 05:27:26;;;;;;;21.65;18.20;;;;;;;15.09;85.33;100978.89;1788292;80;21160;-81
2021/09/26 05:29:52;;;;;;;19.57;17.25;;;;;;;15.11;85.35;100978.19;1786546;80;20884;-82
2021/09/26 05:32:18;;;;;;;20.35;18.07;;;;;;;15.17;85.36;100978.78;1786670;80;21010;-81
2021/09/26 05:34:44;;;;;;;19.75;17.65;;;;;;;15.24;85.35;100980.20;1786644;80;21019;-82
2021/09/26 05:37:11;;;;;;;21.12;18.73;;;;;;;15.31;85.35;100967.69;1785717;80;21002;-82
2021/09/26 05:39:38;;;;;;;23.12;17.80;;;;;;;15.36;85.34;100976.88;1782338;80;21050;-81
2021/09/26 05:42:06;;;;;;;19.90;17.82;;;;;;;15.48;85.28;100975.41;1788373;80;20973;-81
2021/09/26 05:44:34;;;;;;;19.70;17.23;;;;;;;15.48;85.28;100975.41;1787178;80;21444;-81
2021/09/26 05:47:01;;;;;;;19.07;17.15;;;;;;;15.54;85.33;100973.83;1787633;78;20982;-81
2021/09/26 05:49:27;;;;;;;21.42;17.98;;;;;;;15.52;85.42;100961.61;1792911;78;21074;-81
2021/09/26 05:51:52;;;;;;;19.65;17.52;;;;;;;15.69;85.30;100980.53;1823942;78;21162;-81
2021/09/26 05:54:19;;;;;;;20.60;18.27;;;;;;;15.77;85.29;100977.71;1790387;78;21037;-82
2021/09/26 05:56:46;;;;;;;21.35;17.75;;;;;;;15.83;85.27;100973.75;1774127;80;21508;-82
2021/09/26 05:59:12;;;;;;;19.60;16.65;;;;;;;15.91;85.23;100980.88;1776890;80;21038;-83
2021/09/26 06:01:39;;;;;;;21.82;17.73;;;;;;;15.96;85.23;100977.11;1777557;80;21055;-82
2021/09/26 06:04:05;;;;;;;21.65;18.32;;;;;;;16.04;85.19;100977.00;1777210;80;21133;-82
2021/09/26 06:06:31;;;;;;;20.45;17.67;;;;;;;16.12;85.15;100979.55;1777628;80;21036;-82
2021/09/26 06:08:57;;;;;;;21.17;17.75;;;;;;;16.20;85.07;100977.24;1783671;80;21391;-82
2021/09/26 06:11:24;;;;;;;21.17;16.65;;;;;;;16.27;85.05;100981.67;1783501;80;21531;-82
2021/09/26 06:13:49;;;;;;;18.02;16.17;;;;;;;16.33;85.00;100981.40;1776897;80;20990;-83
2021/09/26 06:16:15;;;;;;;17.80;15.28;;;;;;;16.38;84.96;100981.16;1778285;80;21110;-82
2021/09/26 06:18:41;;;;;;;16.73;14.53;;;;;;;16.45;84.91;100984.74;1752763;81;20983;-82
2021/09/26 06:21:08;;;;;;;18.85;15.28;;;;;;;16.52;84.84;100986.14;1765603;80;21009;-82
2021/09/26 06:23:34;;;;;;;15.75;13.58;;;;;;;16.59;84.79;100982.19;1783867;80;21657;-81
2021/09/26 06:26:00;;;;;;;17.77;14.33;;;;;;;16.68;84.70;100991.27;1783652;80;21494;-81
2021/09/26 06:28:26;;;;;;;16.57;13.10;;;;;;;16.75;84.64;100986.77;1783458;79;21803;-81
2021/09/26 06:30:53;;;;;;;16.75;13.13;;;;;;;16.86;84.58;100992.13;1783516;80;21014;-82
2021/09/26 06:33:19;;;;;;;14.35;12.75;;;;;;;16.93;84.49;100994.36;1770484;80;21046;-83
2021/09/26 06:35:45;;;;;;;16.67;12.82;;;;;;;16.97;84.40;100988.90;1773460;80;21023;-82
2021/09/26 06:38:11;;;;;;;18.42;13.18;;;;;;;17.03;84.29;100989.99;1775131;80;21003;-82
2021/09/26 06:40:37;;;;;;;17.00;13.18;;;;;;;17.08;84.20;100992.40;1765532;80;21155;-82
2021/09/26 06:43:03;;;;;;;14.80;12.25;;;;;;;17.11;84.12;100993.34;1769633;80;21066;-82
2021/09/26 06:45:29;;;;;;;14.87;13.28;;;;;;;17.15;84.02;100989.23;1781007;80;21070;-82
2021/09/26 06:47:56;;;;;;;15.70;13.28;;;;;;;17.19;83.90;100990.50;1706135;83;21459;-82
2021/09/26 06:50:22;;;;;;;16.55;13.70;;;;;;;17.26;83.81;100985.98;1712053;82;21014;-82
2021/09/26 06:52:48;;;;;;;14.70;13.15;;;;;;;17.31;83.65;100984.05;1707417;82;21076;-82
2021/09/26 06:55:14;;;;;;;17.82;12.47;;;;;;;17.36;83.58;100991.84;1703504;84;21061;-82
2021/09/26 06:57:40;;;;;;;16.75;12.70;;;;;;;17.43;83.45;100998.09;1713944;83;21086;-82
2021/09/26 07:00:08;;;;;;;13.93;12.43;;;;;;;17.47;83.33;100998.02;1748986;82;20991;-82
2021/09/26 07:02:34;;;;;;;16.32;11.90;;;;;;;17.55;83.24;101000.23;1749252;82;21034;-82
2021/09/26 07:05:00;;;;;;;14.87;11.65;;;;;;;17.62;83.13;101001.12;1751045;80;21036;-82
2021/09/26 07:07:26;;;;;;;15.08;11.53;;;;;;;17.66;82.98;101001.84;1748836;82;21002;-82
2021/09/26 07:09:52;;;;;;;12.68;11.10;;;;;;;17.73;82.85;101006.75;1761308;80;21003;-82
2021/09/26 07:12:18;;;;;;;14.18;11.22;;;;;;;17.78;82.73;101002.11;1776012;80;21555;-82
2021/09/26 07:14:45;;;;;;;15.45;11.93;;;;;;;17.83;82.57;101006.40;1776215;80;21000;-82
2021/09/26 07:17:11;;;;;;;14.85;11.53;;;;;;;17.89;82.45;101010.47;1775843;80;21127;-83
2021/09/26 07:19:37;;;;;;;13.10;10.60;;;;;;;17.98;82.28;101005.70;1776097;80;21039;-82
2021/09/26 07:22:04;;;;;;;13.68;10.38;;;;;;;18.12;82.16;101003.34;1776177;80;20991;-82
2021/09/26 07:24:30;;;;;;;12.37;10.70;;;;;;;;;;1776060;80;21578;-82
2021/09/26 07:26:56;;;;;;;10.95;9.83;;;;;;;18.24;81.83;101004.42;1763353;79;21471;-82
2021/09/26 07:29:22;;;;;;;12.63;9.33;;;;;;;18.31;81.64;101006.62;1779775;80;21795;-82
2021/09/26 07:31:48;;;;;;;12.63;9.38;;;;;;;18.38;81.47;101007.46;1777796;80;20883;-82
2021/09/26 07:34:14;;;;;;;12.28;9.53;;;;;;;18.42;81.30;101012.77;1779954;80;21015;-82
2021/09/26 07:36:40;;;;;;;10.60;9.28;;;;;;;18.47;81.11;101014.31;1779691;80;21018;-82
2021/09/26 07:39:06;;;;;;;12.28;9.83;;;;;;;18.47;80.94;101012.97;1765605;79;21041;-82
2021/09/26 07:41:33;;;;;;;10.82;8.10;;;;;;;18.47;80.75;101014.86;1779950;80;21515;-83
2021/09/26 07:44:00;;;;;;;12.25;9.58;;;;;;;18.43;80.61;101019.01;1773072;80;20974;-83
2021/09/26 07:46:26;;;;;;;10.60;9.20;;;;;;;18.44;80.47;101016.08;1749431;82;21006;-83
2021/09/26 07:48:53;;;;;;;12.10;9.93;;;;;;;18.57;80.38;101019.87;1748733;81;21471;-83
2021/09/26 07:51:19;;;;;;;15.50;11.30;;;;;;;18.73;80.23;101020.30;1748648;82;21104;-82
2021/09/26 07:53:45;;;;;;;12.70;9.90;;;;;;;18.83;80.04;101023.92;1748823;82;21213;-82
2021/09/26 07:56:11;;;;;;;11.55;10.45;;;;;;;18.89;79.94;101023.91;1748853;82;21478;-83
2021/09/26 07:58:37;;;;;;;13.98;11.33;;;;;;;18.92;79.77;101025.39;1761376;80;21093;-83
2021/09/26 08:01:03;;;;;;;12.80;11.40;;;;;;;18.98;79.67;101031.82;1784206;80;21057;-83
2021/09/26 08:03:29;;;;;;;11.93;10.65;;;;;;;18.99;79.48;101032.14;1771741;80;21005;-83
2021/09/26 08:05:56;;;;;;;15.08;11.15;;;;;;;18.93;79.32;101025.68;1757090;81;21181;-83
2021/09/26 08:08:23;;;;;;;12.50;11.03;;;;;;;18.94;79.25;101033.59;1774893;78;21060;-83
2021/09/26 08:10:49;;;;;;;15.63;11.35;;;;;;;18.92;79.09;101032.15;1776951;80;21005;-83
2021/09/26 08:13:15;;;;;;;14.05;11.50;;;;;;;18.90;78.98;101032.86;1787672;80;21463;-83
2021/09/26 08:15:41;;;;;;;12.70;11.10;;;;;;;18.93;78.91;101037.84;1788283;80;21506;-83
2021/09/26 08:18:07;;;;;;;13.20;11.00;;;;;;;19.00;78.81;101034.62;1788094;80;21928;-83
2021/09/26 08:20:34;;;;;;;13.72;11.10;;;;;;;19.02;78.71;101031.20;1788666;78;21506;-83
2021/09/26 08:23:00;;;;;;;12.50;10.43;;;;;;;19.13;78.62;101031.92;1788092;80;20962;-82
2021/09/26 08:25:26;;;;;;;13.13;11.05;;;;;;;19.15;78.47;101029.83;1763497;80;21049;-83
2021/09/26 08:27:52;;;;;;;13.65;9.78;;;;;;;19.31;78.40;101029.40;1757276;80;21038;-83
2021/09/26 08:30:18;;;;;;;12.30;10.80;;;;;;;19.42;78.25;101031.45;1756991;81;21570;-83
2021/09/26 08:32:45;;;;;;;11.38;10.18;;;;;;;19.44;78.10;101033.45;1757008;81;21422;-82
2021/09/26 08:35:11;;;;;;;15.35;10.58;;;;;;;19.44;77.92;101033.97;1756964;81;21053;-83
2021/09/26 08:37:38;;;;;;;12.58;9.40;;;;;;;19.50;77.79;101032.27;1756943;81;21105;-83
2021/09/26 08:40:05;;;;;;;12.40;9.45;;;;;;;19.64;77.68;101037.95;1702269;83;21495;-82
2021/09/26 08:42:37;;;;;;;14.45;9.68;;;;;;;19.83;77.52;101033.00;1692724;84;21586;-82
2021/09/26 08:45:05;;;;;;;10.68;9.60;;;;;;;20.01;77.33;101035.00;1695910;83;21062;-83
2021/09/26 08:47:36;;;;;;;11.97;10.20;;;;;;;20.05;77.13;101034.36;1695205;83;21033;-83
2021/09/26 08:50:01;;;;;;;13.60;9.10;;;;;;;20.22;76.97;101030.09;1729519;82;21047;-82
2021/09/26 08:52:27;;;;;;;12.78;9.93;;;;;;;20.31;76.69;101034.23;1729485;81;21010;-83
2021/09/26 08:54:53;;;;;;;16.17;9.38;;;;;;;20.26;76.39;101028.61;1713864;82;21584;-83
2021/09/26 08:57:21;;;;;;;10.45;9.28;;;;;;;20.30;76.20;101024.42;1734387;82;21075;-82
2021/09/26 08:59:47;;;;;;;10.00;8.90;;;;;;;20.41;76.04;101022.38;1725263;82;20999;-83
2021/09/26 09:02:13;;;;;;;13.80;10.68;;;;;;;20.49;75.69;101021.81;1722576;82;21019;-82
2021/09/26 09:04:41;;;;;;;11.15;9.00;;;;;;;20.65;75.48;101022.12;1703070;84;21019;-82
2021/09/26 09:07:10;;;;;;;11.50;8.90;;;;;;;20.92;75.24;101025.43;1698548;81;22439;-82
2021/09/26 09:09:52;;;;;;;9.73;8.73;;;;;;;21.16;74.95;101021.05;1694885;84;21015;-82
2021/09/26 09:12:24;;;;;;;12.33;7.87;;;;;;;21.34;74.60;101024.63;1711549;81;21071;-82
2021/09/26 09:15:07;;;;;;;9.03;7.80;;;;;;;21.39;74.20;101016.63;1742589;80;20975;-82
2021/09/26 09:17:39;;;;;;;8.75;7.85;;;;;;;21.36;73.77;101022.50;1748830;82;20891;-82
2021/09/26 09:20:26;;;;;;;8.60;7.72;;;;;;;21.30;73.29;101023.41;1748718;82;21810;-83
2021/09/26 09:22:58;;;;;;;9.28;7.28;;;;;;;21.35;72.99;101023.58;1747593;82;21038;-82
2021/09/26 09:25:46;;;;;;;12.55;8.05;;;;;;;21.45;72.62;101023.58;1746979;81;21471;-83
2021/09/26 09:28:20;;;;;;;11.05;8.20;;;;;;;21.57;72.37;101022.58;1776108;80;20979;-82
2021/09/26 09:30:52;;;;;;;11.95;7.35;;;;;;;21.72;72.07;101018.12;1779411;80;20927;-83
2021/09/26 09:33:19;;;;;;;9.15;8.05;;;;;;;21.68;71.70;101023.19;1780026;80;22420;-83
2021/09/26 09:35:51;;;;;;;9.78;7.40;;;;;;;21.66;71.33;101024.48;1776926;80;20998;-83
2021/09/26 09:38:21;;;;;;;8.68;6.08;;;;;;;21.79;71.19;101021.59;1775321;79;21050;-83
2021/09/26 09:40:51;;;;;;;11.50;7.00;;;;;;;21.99;70.97;101018.67;1740451;81;21029;-83
2021/09/26 09:43:16;;;;;;;;;;;;;;;21.97;70.49;101014.81;1751638;81;21058;-83
2021/09/26 09:45:53;;;;;;;7.92;6.97;;;;;;;22.02;70.33;101013.61;1749083;82;21699;-83
2021/09/26 09:48:21;;;;;;;11.22;7.10;;;;;;;22.19;70.23;101006.46;1748788;81;20998;-83
2021/09/26 09:51:05;;;;;;;10.48;7.58;;;;;;;22.29;69.81;101006.73;1748999;82;21007;-83
2021/09/26 09:53:38;;;;;;;9.10;7.42;;;;;;;22.14;69.08;101002.77;1749027;82;20984;-83
2021/09/26 09:56:21;;;;;;;8.08;6.75;;;;;;;22.23;69.03;101002.23;1748788;80;21018;-83
2021/09/26 09:58:55;;;;;;;11.90;6.33;;;;;;;22.50;68.89;100999.09;1755266;80;21822;-83
2021/09/26 10:01:31;;;;;;;5.67;5.05;;;;;;;22.61;68.59;101005.91;1770964;80;21022;-83
2021/09/26 10:04:01;;;;;;;10.48;6.00;;;;;;;22.44;68.07;101001.39;1779985;80;21045;-83
2021/09/26 10:06:45;;;;;;;9.53;6.42;;;;;;;22.38;67.95;100999.05;1764572;79;20970;-81
2021/09/26 10:09:26;;;;;;;6.50;4.87;;;;;;;22.35;67.81;100997.64;1758528;80;21077;-81
2021/09/26 10:12:01;;;;;;;7.80;5.40;;;;;;;22.36;67.61;100984.88;1755241;79;21648;-80
2021/09/26 10:14:31;;;;;;;6.53;5.92;;;;;;;22.35;67.41;100986.77;1758871;80;20911;-81
2021/09/26 10:16:57;;;;;;;;;;;;;;;22.55;67.30;100991.07;1783761;79;21026;-81
2021/09/26 10:19:25;;;;;;;7.17;5.53;;;;;;;22.66;67.10;100998.42;1754384;80;20217;-81
2021/09/26 10:21:55;;;;;;;6.92;5.80;;;;;;;22.68;66.92;100993.60;1765287;80;20997;-81
2021/09/26 10:27:46;;;;;;;6.00;5.40;;;;;;;22.75;66.58;100997.03;1771623;80;21000;-81
2021/09/26 10:30:14;;;;;;;5.78;4.35;;;;;;;22.85;66.39;100998.64;1782809;79;20970;-81
2021/09/26 10:32:40;;;;;;;9.65;4.87;;;;;;;22.98;66.17;101001.64;1757245;80;21024;-82
2021/09/26 10:35:07;;;;;;;7.22;5.95;;;;;;;23.01;66.00;100997.11;1762655;80;21063;-82
2021/09/26 10:37:33;;;;;;;6.12;4.72;;;;;;;22.89;65.68;100998.47;1747720;80;21832;-81
2021/09/26 10:39:59;;;;;;;5.70;5.10;;;;;;;22.79;65.56;100999.59;1758559;81;21025;-81
2021/09/26 10:42:27;;;;;;;6.97;5.20;;;;;;;22.73;65.35;100997.81;1744427;81;21008;-81
2021/09/26 10:44:58;;;;;;;9.18;5.22;;;;;;;22.59;65.13;101000.42;1732058;82;21448;-81
2021/09/26 10:47:29;;;;;;;8.45;5.10;;;;;;;22.52;65.11;100995.63;1759645;80;21000;-81
2021/09/26 10:50:08;;;;;;;5.33;4.50;;;;;;;22.57;65.09;100995.20;1773644;80;21873;-81
2021/09/26 10:52:38;;;;;;;5.85;4.33;;;;;;;22.60;64.98;100992.54;1757290;80;21948;-81
2021/09/26 10:55:27;;;;;;;4.92;3.98;;;;;;;22.59;64.75;100992.27;1774826;80;21076;-81
2021/09/26 10:58:11;;;;;;;5.75;4.85;;;;;;;22.49;64.52;100997.42;1757640;80;21021;-79
2021/09/26 11:00:57;;;;;;;6.10;4.97;;;;;;;22.48;64.35;100993.91;1756789;80;21032;-79
2021/09/26 11:03:34;;;;;;;5.37;4.75;;;;;;;22.57;64.15;100996.56;1735775;80;21858;-78
2021/09/26 11:06:10;;;;;;;6.10;4.05;;;;;;;22.55;63.95;100991.07;1761858;80;21528;-77
2021/09/26 11:08:42;;;;;;;5.53;4.30;;;;;;;22.62;63.65;100991.80;1738787;79;21025;-78
2021/09/26 11:11:09;;;;;;;5.37;4.15;;;;;;;22.70;63.42;100988.73;1764075;80;21033;-78
2021/09/26 11:13:37;;;;;;;6.08;4.50;;;;;;;22.70;63.25;100984.66;1754855;80;21038;-79
2021/09/26 11:16:16;;;;;;;3.50;3.17;;;;;;;22.74;63.09;100984.49;1744673;80;22010;-79
2021/09/26 11:18:58;;;;;;;4.78;3.58;;;;;;;22.75;62.88;100981.55;1743757;80;21563;-78
2021/09/26 11:21:42;;;;;;;5.22;3.95;;;;;;;22.77;62.59;100975.86;1769883;79;21271;-79
2021/09/26 11:24:21;;;;;;;4.78;3.35;;;;;;;22.90;62.40;100978.37;1774825;79;21406;-78
2021/09/26 11:27:13;;;;;;;3.58;3.05;;;;;;;23.06;62.13;100979.53;1745830;79;21042;-78